createdAt,value
2023-05-15T00:01:24.720Z,640.97
2023-05-15T00:03:55.351Z,632.40
2023-05-15T00:06:24.084Z,648.42
2023-05-15T00:08:52.709Z,650.00
2023-05-15T00:11:23.502Z,677.17
2023-05-15T00:13:52.231Z,645.08
2023-05-15T00:16:20.800Z,678.80
2023-05-15T00:18:49.341Z,659.42
2023-05-15T00:21:19.261Z,674.92
2023-05-15T00:23:47.713Z,691.05
2023-05-15T00:26:16.301Z,689.15
2023-05-15T00:28:44.821Z,696.85
2023-05-15T00:31:14.882Z,677.72
2023-05-15T00:33:43.526Z,676.63
2023-05-15T00:36:12.246Z,683.28
2023-05-15T00:38:42.183Z,655.88
2023-05-15T00:41:12.264Z,719.85
2023-05-15T00:43:41.617Z,692.95
2023-05-15T00:46:10.049Z,659.58
2023-05-15T00:48:38.714Z,665.05
2023-05-15T00:51:07.331Z,638.50
2023-05-15T00:53:35.824Z,642.22
2023-05-15T00:56:07.955Z,694.80
2023-05-15T00:58:36.462Z,689.35
2023-05-15T01:01:06.880Z,640.38
2023-05-15T01:03:37.752Z,644.78
2023-05-15T01:06:06.638Z,647.30
2023-05-15T01:08:40.755Z,640.20
2023-05-15T01:11:12.174Z,646.45
2023-05-15T01:13:40.592Z,640.92
2023-05-15T01:16:09.571Z,660.05
2023-05-15T01:18:38.485Z,709.13
2023-05-15T01:21:35.027Z,649.95
2023-05-15T01:24:17.538Z,635.03
2023-05-15T01:27:18.708Z,639.05
2023-05-15T01:29:52.486Z,650.97
2023-05-15T01:32:24.644Z,654.28
2023-05-15T01:34:58.981Z,658.67
2023-05-15T01:37:28.689Z,659.80
2023-05-15T01:40:01.380Z,656.47
2023-05-15T01:42:34.991Z,676.30
2023-05-15T01:45:06.062Z,697.03
2023-05-15T01:47:38.758Z,646.13
2023-05-15T01:50:09.201Z,671.13
2023-05-15T01:52:39.857Z,652.80
2023-05-15T01:55:09.631Z,670.05
2023-05-15T01:57:40.350Z,665.78
2023-05-15T02:00:10.430Z,671.08
2023-05-15T02:02:39.411Z,695.10
2023-05-15T02:05:09.207Z,662.67
2023-05-15T02:07:38.101Z,691.75
2023-05-15T02:10:08.003Z,695.85
2023-05-15T02:12:37.954Z,708.13
2023-05-15T02:15:07.261Z,714.80
2023-05-15T02:17:35.986Z,698.00
2023-05-15T02:20:06.250Z,702.63
2023-05-15T02:22:36.484Z,690.60
2023-05-15T02:25:05.393Z,685.22
2023-05-15T02:27:47.536Z,690.97
2023-05-15T02:30:26.791Z,694.20
2023-05-15T02:33:00.472Z,683.55
2023-05-15T02:35:33.399Z,673.55
2023-05-15T02:38:04.377Z,688.63
2023-05-15T02:40:33.782Z,673.42
2023-05-15T02:43:03.918Z,683.40
2023-05-15T02:45:32.671Z,672.50
2023-05-15T02:48:01.737Z,679.65
2023-05-15T02:50:30.389Z,676.47
2023-05-15T02:53:04.257Z,667.03
2023-05-15T02:55:32.706Z,669.33
2023-05-15T02:58:02.498Z,665.97
2023-05-15T03:00:31.022Z,690.85
2023-05-15T03:02:59.576Z,681.38
2023-05-15T03:05:28.119Z,686.72
2023-05-15T03:07:58.246Z,668.75
2023-05-15T03:10:26.600Z,760.72
2023-05-15T03:12:58.177Z,664.85
2023-05-15T03:15:28.152Z,663.67
2023-05-15T03:17:56.645Z,677.03
2023-05-15T03:20:25.197Z,679.35
2023-05-15T03:22:53.744Z,680.45
2023-05-15T03:25:23.603Z,641.28
2023-05-15T03:27:52.291Z,655.08
2023-05-15T03:30:20.738Z,650.25
2023-05-15T03:32:50.527Z,642.55
2023-05-15T03:35:19.102Z,669.10
2023-05-15T03:37:47.581Z,656.03
2023-05-15T03:40:16.336Z,668.03
2023-05-15T03:42:44.690Z,665.63
2023-05-15T03:45:13.037Z,653.30
2023-05-15T03:47:42.868Z,643.90
2023-05-15T03:50:13.256Z,679.45
2023-05-15T03:52:42.416Z,667.40
2023-05-15T03:55:12.734Z,659.25
2023-05-15T03:57:42.388Z,671.67
2023-05-15T04:00:12.387Z,684.38
2023-05-15T04:02:41.404Z,682.65
2023-05-15T04:05:12.075Z,672.58
2023-05-15T04:07:40.711Z,688.88
2023-05-15T04:10:10.002Z,667.55
2023-05-15T04:12:39.075Z,674.92
2023-05-15T04:15:19.718Z,684.50
2023-05-15T04:17:51.311Z,698.22
2023-05-15T04:20:22.273Z,679.63
2023-05-15T04:22:50.921Z,668.17
2023-05-15T04:25:20.252Z,667.97
2023-05-15T04:27:49.508Z,627.97
2023-05-15T04:30:18.224Z,710.53
2023-05-15T04:32:46.769Z,652.03
2023-05-15T04:35:15.857Z,682.72
2023-05-15T04:37:46.882Z,702.70
2023-05-15T04:40:16.558Z,629.58
2023-05-15T04:42:45.588Z,693.75
2023-05-15T04:45:14.963Z,750.17
2023-05-15T04:47:43.420Z,720.78
2023-05-15T04:50:12.378Z,760.50
2023-05-15T04:52:40.943Z,689.08
2023-05-15T04:55:14.071Z,662.83
2023-05-15T04:57:42.442Z,677.92
2023-05-15T05:00:12.507Z,784.15
2023-05-15T05:02:41.534Z,704.13
2023-05-15T05:05:10.692Z,670.28
2023-05-15T05:07:39.145Z,643.33
2023-05-15T05:10:10.906Z,696.80
2023-05-15T05:12:39.514Z,670.13
2023-05-15T05:15:09.598Z,683.17
2023-05-15T05:17:38.458Z,676.90
2023-05-15T05:20:10.629Z,738.63
2023-05-15T05:22:42.396Z,751.20
2023-05-15T05:25:12.589Z,697.40
2023-05-15T05:27:41.054Z,692.35
2023-05-15T05:30:10.565Z,695.10
2023-05-15T05:32:39.430Z,693.80
2023-05-15T05:35:08.473Z,689.75
2023-05-15T05:37:38.683Z,739.22
2023-05-15T05:40:11.423Z,712.65
2023-05-15T05:42:39.989Z,851.20
2023-05-15T05:45:09.322Z,737.85
2023-05-15T05:47:38.104Z,669.05
2023-05-15T05:50:08.035Z,672.80
2023-05-15T05:52:36.478Z,694.10
2023-05-15T05:55:05.166Z,756.38
2023-05-15T05:57:51.914Z,713.22
2023-05-15T06:00:21.434Z,737.95
2023-05-15T06:02:49.961Z,718.88
2023-05-15T06:05:18.536Z,726.63
2023-05-15T06:07:46.886Z,723.70
2023-05-15T06:10:15.656Z,712.17
2023-05-15T06:12:45.571Z,743.15
2023-05-15T06:15:14.430Z,689.33
2023-05-15T06:17:42.805Z,648.60
2023-05-15T06:20:12.072Z,724.80
2023-05-15T06:22:40.773Z,672.92
2023-05-15T06:25:13.662Z,667.13
2023-05-15T06:27:42.549Z,670.78
2023-05-15T06:30:13.701Z,655.67
2023-05-15T06:32:42.524Z,653.03
2023-05-15T06:35:11.515Z,620.38
2023-05-15T06:37:40.070Z,660.85
2023-05-15T06:40:09.859Z,677.42
2023-05-15T06:42:38.174Z,705.78
2023-05-15T06:45:07.753Z,771.33
2023-05-15T06:47:37.592Z,707.95
2023-05-15T06:50:06.765Z,722.83
2023-05-15T06:52:35.156Z,717.03
2023-05-15T06:55:03.744Z,712.28
2023-05-15T06:57:32.352Z,692.17
2023-05-15T07:00:01.390Z,703.17
2023-05-15T07:02:29.956Z,705.42
2023-05-15T07:05:00.053Z,735.20
2023-05-15T07:07:28.728Z,710.40
2023-05-15T07:09:57.279Z,748.90
2023-05-15T07:12:26.560Z,688.08
2023-05-15T07:14:55.284Z,701.75
2023-05-15T07:17:23.907Z,683.38
2023-05-15T07:19:54.780Z,690.78
2023-05-15T07:22:24.828Z,703.63
2023-05-15T07:24:53.220Z,691.63
2023-05-15T07:27:21.613Z,711.05
2023-05-15T07:29:50.351Z,701.92
2023-05-15T07:32:18.778Z,702.92
2023-05-15T07:34:47.263Z,715.03
2023-05-15T07:37:16.911Z,696.58
2023-05-15T07:39:47.474Z,721.88
2023-05-15T07:42:16.068Z,693.22
2023-05-15T07:44:45.964Z,696.65
2023-05-15T07:47:15.787Z,704.47
2023-05-15T07:49:44.154Z,676.25
2023-05-15T07:52:12.639Z,695.50
2023-05-15T07:54:42.313Z,710.22
2023-05-15T07:57:13.260Z,671.90
2023-05-15T07:59:43.000Z,824.88
2023-05-15T08:02:11.458Z,700.15
2023-05-15T08:04:39.875Z,700.67
2023-05-15T08:07:10.610Z,689.38
2023-05-15T08:09:39.055Z,711.75
2023-05-15T08:12:21.692Z,798.00
2023-05-15T08:14:51.318Z,765.25
2023-05-15T08:17:23.458Z,694.03
2023-05-15T08:19:51.800Z,719.13
2023-05-15T08:22:20.162Z,844.30
2023-05-15T08:24:48.985Z,723.65
2023-05-15T08:27:18.905Z,756.55
2023-05-15T08:29:47.357Z,702.72
2023-05-15T08:32:15.761Z,717.25
2023-05-15T08:34:44.472Z,707.70
2023-05-15T08:37:12.975Z,714.53
2023-05-15T08:39:41.443Z,701.33
2023-05-15T08:42:12.242Z,778.08
2023-05-15T08:44:42.730Z,801.85
2023-05-15T08:47:11.581Z,710.53
2023-05-15T08:49:49.237Z,738.88
2023-05-15T08:52:18.309Z,690.22
2023-05-15T08:54:48.605Z,718.53
2023-05-15T08:57:21.771Z,707.20
2023-05-15T08:59:53.136Z,697.65
2023-05-15T09:02:22.177Z,725.38
2023-05-15T09:04:51.057Z,741.83
2023-05-15T09:07:19.698Z,741.38
2023-05-15T09:09:48.547Z,692.78
2023-05-15T09:12:18.016Z,696.83
2023-05-15T09:14:46.654Z,696.35
2023-05-15T09:17:16.485Z,680.15
2023-05-15T09:19:45.082Z,697.35
2023-05-15T09:22:18.260Z,706.58
2023-05-15T09:24:48.202Z,666.50
2023-05-15T09:27:17.022Z,717.05
2023-05-15T09:29:45.411Z,686.50
2023-05-15T09:32:16.654Z,697.22
2023-05-15T09:34:46.075Z,710.83
2023-05-15T09:37:29.942Z,713.58
2023-05-15T09:40:01.870Z,830.70
2023-05-15T09:42:36.256Z,717.05
2023-05-15T09:45:05.881Z,734.80
2023-05-15T09:47:35.884Z,708.50
2023-05-15T09:50:04.666Z,680.20
2023-05-15T09:52:33.955Z,712.50
2023-05-15T09:55:02.812Z,732.95
2023-05-15T09:57:31.234Z,734.00
2023-05-15T10:00:05.226Z,754.20
2023-05-15T10:02:35.393Z,695.55
2023-05-15T10:05:04.101Z,830.63
2023-05-15T10:07:33.270Z,690.15
2023-05-15T10:10:02.385Z,674.97
2023-05-15T10:12:32.172Z,697.90
2023-05-15T10:15:04.014Z,701.92
2023-05-15T10:17:35.764Z,717.03
2023-05-15T10:20:06.993Z,721.92
2023-05-15T10:22:39.566Z,707.35
2023-05-15T10:25:14.801Z,747.28
2023-05-15T10:27:44.593Z,719.05
2023-05-15T10:30:13.426Z,694.55
2023-05-15T10:32:44.534Z,639.10
2023-05-15T10:35:13.506Z,654.78
2023-05-15T10:37:42.092Z,651.00
2023-05-15T10:40:12.207Z,697.88
2023-05-15T10:42:43.193Z,813.72
2023-05-15T10:45:12.236Z,665.13
2023-05-15T10:47:43.172Z,651.40
2023-05-15T10:50:13.374Z,692.78
2023-05-15T10:52:42.702Z,713.40
2023-05-15T10:55:15.036Z,708.42
2023-05-15T10:57:43.484Z,658.42
2023-05-15T11:00:27.595Z,654.20
2023-05-15T11:02:58.899Z,609.80
2023-05-15T11:05:28.004Z,671.53
2023-05-15T11:08:28.102Z,676.78
2023-05-15T11:10:56.693Z,719.95
2023-05-15T11:13:25.372Z,666.30
2023-05-15T11:15:57.288Z,601.13
2023-05-15T11:18:28.177Z,597.63
2023-05-15T11:21:09.739Z,593.15
2023-05-15T11:23:42.030Z,644.35
2023-05-15T11:26:10.614Z,635.97
2023-05-15T11:28:48.158Z,721.88
2023-05-15T11:31:16.775Z,637.90
2023-05-15T11:33:46.958Z,573.30
2023-05-15T11:36:18.641Z,554.03
2023-05-15T11:38:52.174Z,567.03
2023-05-15T11:41:24.952Z,571.60
2023-05-15T11:43:53.512Z,625.33
2023-05-15T11:46:22.610Z,699.38
2023-05-15T11:48:52.690Z,672.05
2023-05-15T11:51:22.630Z,663.60
2023-05-15T11:53:52.121Z,707.63
2023-05-15T11:56:22.915Z,670.65
2023-05-15T11:58:51.604Z,655.08
2023-05-15T12:01:20.390Z,668.38
2023-05-15T12:03:51.654Z,687.63
2023-05-15T12:06:20.316Z,821.58
2023-05-15T12:08:53.348Z,667.75
2023-05-15T12:11:24.282Z,688.50
2023-05-15T12:13:54.269Z,645.55
2023-05-15T12:16:26.108Z,597.70
2023-05-15T12:18:57.790Z,601.85
2023-05-15T12:21:28.296Z,662.38
2023-05-15T12:24:07.095Z,597.85
2023-05-15T12:26:38.469Z,597.13
2023-05-15T12:29:07.129Z,580.20
2023-05-15T12:31:36.387Z,595.25
2023-05-15T12:34:06.373Z,611.92
2023-05-15T12:36:34.857Z,594.65
2023-05-15T12:39:07.849Z,600.40
2023-05-15T12:41:37.704Z,608.65
2023-05-15T12:44:06.899Z,601.35
2023-05-15T12:46:35.549Z,686.97
2023-05-15T12:49:05.728Z,635.25
2023-05-15T12:51:34.098Z,582.03
2023-05-15T12:54:02.546Z,636.28
2023-05-15T12:56:31.552Z,640.30
2023-05-15T12:58:59.916Z,607.50
2023-05-15T13:01:28.464Z,565.65
2023-05-15T13:03:57.460Z,623.10
2023-05-15T13:06:41.895Z,579.70
2023-05-15T13:09:13.922Z,559.97
2023-05-15T13:11:45.878Z,553.10
2023-05-15T13:14:18.200Z,522.40
2023-05-15T13:16:47.722Z,580.45
2023-05-15T13:19:17.721Z,606.15
2023-05-15T13:21:50.821Z,549.50
2023-05-15T13:24:19.474Z,714.50
2023-05-15T13:26:48.006Z,556.55
2023-05-15T13:29:16.816Z,548.35
2023-05-15T13:31:45.535Z,513.67
2023-05-15T13:34:14.907Z,512.63
2023-05-15T13:36:43.344Z,551.47
2023-05-15T13:39:13.277Z,591.25
2023-05-15T13:41:41.872Z,718.05
2023-05-15T13:44:10.208Z,602.42
2023-05-15T13:46:38.555Z,641.03
2023-05-15T13:49:07.704Z,556.40
2023-05-15T13:51:36.122Z,615.25
2023-05-15T13:54:04.590Z,614.05
2023-05-15T13:56:34.327Z,633.38
2023-05-15T13:59:02.695Z,643.85
2023-05-15T14:01:31.105Z,670.33
2023-05-15T14:03:59.545Z,627.22
2023-05-15T14:06:28.455Z,654.72
2023-05-15T14:08:56.809Z,799.70
2023-05-15T14:11:25.143Z,685.10
2023-05-15T14:13:54.946Z,762.40
2023-05-15T14:16:23.425Z,727.83
2023-05-15T14:18:51.889Z,672.45
2023-05-15T14:21:20.609Z,723.17
2023-05-15T14:23:48.992Z,805.38
2023-05-15T14:26:17.328Z,673.22
2023-05-15T14:28:46.030Z,759.75
2023-05-15T14:31:15.787Z,718.85
2023-05-15T14:33:44.140Z,621.80
2023-05-15T14:36:12.478Z,658.78
2023-05-15T14:38:42.238Z,642.10
2023-05-15T14:41:10.584Z,626.85
2023-05-15T14:43:39.258Z,642.38
2023-05-15T14:46:11.174Z,644.15
2023-05-15T14:48:41.181Z,616.35
2023-05-15T14:51:09.626Z,680.42
2023-05-15T14:53:38.039Z,588.70
2023-05-15T14:56:07.070Z,708.28
2023-05-15T14:58:35.483Z,656.35
2023-05-15T15:01:06.880Z,600.35
2023-05-15T15:03:37.487Z,658.47
2023-05-15T15:06:07.951Z,607.10
2023-05-15T15:08:36.316Z,612.83
2023-05-15T15:11:05.535Z,607.40
2023-05-15T15:13:33.909Z,646.25
2023-05-15T15:16:03.211Z,667.88
2023-05-15T15:18:31.590Z,676.83
2023-05-15T15:21:00.007Z,670.40
2023-05-15T15:23:29.696Z,727.92
2023-05-15T15:25:58.051Z,754.65
2023-05-15T15:28:29.007Z,848.85
2023-05-15T15:30:57.346Z,689.17
2023-05-15T15:33:25.756Z,685.00
2023-05-15T15:35:54.851Z,681.97
2023-05-15T15:38:23.219Z,773.17
2023-05-15T15:40:52.952Z,725.92
2023-05-15T15:43:21.311Z,689.17
2023-05-15T15:45:49.690Z,669.55
2023-05-15T15:48:18.882Z,651.92
2023-05-15T15:50:47.367Z,666.53
2023-05-15T15:53:15.916Z,704.45
2023-05-15T15:55:46.228Z,649.10
2023-05-15T15:58:16.779Z,803.55
2023-05-15T16:00:45.499Z,642.53
2023-05-15T16:03:13.939Z,773.75
2023-05-15T16:05:42.352Z,648.67
2023-05-15T16:08:10.764Z,643.97
2023-05-15T16:10:39.631Z,660.10
2023-05-15T16:13:08.824Z,669.78
2023-05-15T16:15:38.459Z,631.20
2023-05-15T16:18:09.344Z,741.22
2023-05-15T16:20:37.797Z,683.55
2023-05-15T16:23:06.133Z,616.72
2023-05-15T16:25:34.591Z,611.88
2023-05-15T16:28:03.097Z,700.65
2023-05-15T16:30:47.205Z,632.05
2023-05-15T16:33:19.413Z,691.70
2023-05-15T16:35:48.167Z,776.58
2023-05-15T16:38:18.003Z,685.97
2023-05-15T16:40:46.437Z,610.83
2023-05-15T16:43:15.230Z,648.83
2023-05-15T16:45:44.474Z,653.83
2023-05-15T16:48:12.913Z,677.60
2023-05-15T16:50:42.885Z,676.83
2023-05-15T16:53:11.631Z,657.97
2023-05-15T16:55:40.251Z,622.95
2023-05-15T16:58:23.474Z,653.53
2023-05-15T17:00:52.148Z,598.08
2023-05-15T17:03:20.763Z,590.60
2023-05-15T17:05:54.672Z,469.20
2023-05-15T17:08:23.097Z,481.45
2023-05-15T17:10:51.507Z,435.27
2023-05-15T17:13:21.883Z,413.52
2023-05-15T17:15:51.290Z,385.20
2023-05-15T17:18:20.088Z,298.65
2023-05-15T17:20:48.749Z,348.35
2023-05-15T17:23:18.956Z,430.48
2023-05-15T17:25:48.115Z,472.08
2023-05-15T17:28:16.608Z,555.85
2023-05-15T17:30:44.956Z,592.83
2023-05-15T17:33:13.347Z,729.75
2023-05-15T17:35:41.727Z,681.65
2023-05-15T17:38:10.114Z,690.47
2023-05-15T17:40:39.871Z,715.70
2023-05-15T17:43:09.750Z,662.65
2023-05-15T17:45:38.227Z,642.10
2023-05-15T17:48:07.124Z,671.60
2023-05-15T17:50:38.015Z,710.70
2023-05-15T17:53:06.484Z,636.90
2023-05-15T17:55:34.846Z,665.78
2023-05-15T17:58:04.599Z,773.97
2023-05-15T18:00:32.933Z,705.08
2023-05-15T18:03:01.697Z,711.78
2023-05-15T18:05:30.232Z,697.95
2023-05-15T18:07:59.970Z,666.85
2023-05-15T18:10:28.457Z,677.28
2023-05-15T18:12:56.924Z,654.85
2023-05-15T18:15:26.795Z,651.85
2023-05-15T18:17:55.396Z,656.80
2023-05-15T18:20:24.094Z,653.47
2023-05-15T18:22:52.478Z,663.95
2023-05-15T18:25:21.111Z,649.50
2023-05-15T18:27:49.554Z,634.95
2023-05-15T18:30:18.510Z,646.97
2023-05-15T18:32:48.275Z,695.88
2023-05-15T18:35:17.821Z,689.90
2023-05-15T18:37:46.121Z,713.60
2023-05-15T18:40:14.882Z,675.97
2023-05-15T18:42:43.246Z,668.30
2023-05-15T18:45:13.285Z,676.33
2023-05-15T18:47:41.742Z,689.00
2023-05-15T18:50:13.706Z,681.38
2023-05-15T18:52:42.102Z,676.53
2023-05-15T18:55:11.309Z,695.78
2023-05-15T18:57:40.148Z,725.30
2023-05-15T19:00:09.485Z,701.10
2023-05-15T19:02:40.117Z,699.95
2023-05-15T19:05:09.341Z,791.80
2023-05-15T19:07:39.088Z,697.42
2023-05-15T19:10:08.902Z,692.85
2023-05-15T19:12:37.977Z,663.05
2023-05-15T19:15:07.517Z,715.83
2023-05-15T19:17:38.123Z,696.30
2023-05-15T19:20:08.509Z,727.63
2023-05-15T19:22:38.687Z,669.88
2023-05-15T19:25:07.944Z,692.30
2023-05-15T19:27:36.380Z,703.60
2023-05-15T19:30:07.084Z,673.28
2023-05-15T19:32:35.965Z,655.10
2023-05-15T19:35:05.232Z,701.47
2023-05-15T19:37:33.652Z,677.70
2023-05-15T19:40:04.248Z,712.28
2023-05-15T19:42:32.652Z,718.60
2023-05-15T19:45:01.234Z,730.90
2023-05-15T19:47:29.614Z,686.28
2023-05-15T19:49:58.016Z,720.92
2023-05-15T19:52:26.446Z,709.28
2023-05-15T19:54:54.843Z,709.88
2023-05-15T19:57:24.537Z,707.03
2023-05-15T19:59:52.876Z,694.28
2023-05-15T20:02:21.306Z,709.40
2023-05-15T20:04:50.474Z,705.30
2023-05-15T20:07:18.770Z,696.90
2023-05-15T20:09:47.169Z,722.30
2023-05-15T20:12:15.498Z,700.38
2023-05-15T20:14:50.012Z,693.05
2023-05-15T20:17:19.043Z,709.90
2023-05-15T20:19:49.499Z,732.72
2023-05-15T20:22:19.268Z,726.05
2023-05-15T20:24:48.206Z,710.80
2023-05-15T20:27:16.668Z,706.20
2023-05-15T20:29:46.619Z,719.20
2023-05-15T20:32:15.134Z,698.20
2023-05-15T20:34:45.662Z,703.00
2023-05-15T20:37:14.211Z,713.05
2023-05-15T20:39:42.772Z,712.28
2023-05-15T20:42:11.263Z,727.50
2023-05-15T20:44:39.637Z,691.70
2023-05-15T20:47:10.738Z,651.35
2023-05-15T20:49:39.419Z,700.60
2023-05-15T20:52:08.152Z,702.63
2023-05-15T20:54:36.932Z,717.88
2023-05-15T20:57:06.123Z,707.40
2023-05-15T20:59:34.866Z,712.17
2023-05-15T21:02:03.335Z,698.10
2023-05-15T21:04:33.414Z,718.55
2023-05-15T21:07:01.928Z,689.00
2023-05-15T21:09:30.518Z,721.53
2023-05-15T21:11:59.860Z,690.95
2023-05-15T21:14:28.431Z,694.05
2023-05-15T21:16:56.879Z,703.80
2023-05-15T21:19:25.591Z,699.67
2023-05-15T21:21:55.399Z,709.40
2023-05-15T21:24:23.853Z,711.92
2023-05-15T21:26:52.419Z,702.65
2023-05-15T21:29:21.305Z,697.70
2023-05-15T21:31:49.797Z,716.35
2023-05-15T21:34:18.365Z,710.47
2023-05-15T21:36:46.939Z,702.50
2023-05-15T21:39:16.725Z,732.95
2023-05-15T21:41:45.194Z,724.42
2023-05-15T21:44:13.679Z,714.53
2023-05-15T21:46:42.596Z,710.08
2023-05-15T21:49:11.358Z,732.63
2023-05-15T21:51:40.235Z,719.30
2023-05-15T21:54:08.703Z,717.88
2023-05-15T21:56:38.549Z,721.08
2023-05-15T21:59:07.004Z,715.97
2023-05-15T22:01:36.273Z,709.55
2023-05-15T22:04:04.940Z,718.80
2023-05-15T22:06:33.673Z,716.22
2023-05-15T22:09:02.476Z,729.28
2023-05-15T22:11:30.859Z,717.35
2023-05-15T22:14:01.562Z,662.33
2023-05-15T22:16:29.926Z,670.92
2023-05-15T22:18:58.773Z,663.85
2023-05-15T22:21:27.588Z,665.00
2023-05-15T22:23:55.942Z,658.28
2023-05-15T22:26:24.530Z,664.70
2023-05-15T22:28:56.334Z,652.70
2023-05-15T22:31:26.551Z,659.30
2023-05-15T22:33:54.945Z,696.90
2023-05-15T22:36:23.346Z,686.85
2023-05-15T22:38:51.797Z,687.83
2023-05-15T22:41:21.058Z,654.20
2023-05-15T22:43:49.757Z,717.13
2023-05-15T22:46:18.116Z,661.72
2023-05-15T22:48:48.061Z,711.65
2023-05-15T22:51:17.608Z,697.78
2023-05-15T22:53:45.969Z,703.08
2023-05-15T22:56:14.789Z,717.50
2023-05-15T22:58:43.381Z,691.03
2023-05-15T23:01:11.985Z,666.92
2023-05-15T23:03:40.861Z,716.67
2023-05-15T23:06:10.951Z,715.88
2023-05-15T23:08:39.364Z,707.33
2023-05-15T23:11:07.666Z,722.65
2023-05-15T23:13:36.053Z,717.95
2023-05-15T23:16:04.787Z,708.38
2023-05-15T23:18:34.951Z,707.45
2023-05-15T23:21:04.807Z,711.15
2023-05-15T23:23:34.621Z,689.90
2023-05-15T23:26:03.089Z,719.03
2023-05-15T23:28:31.687Z,721.40
2023-05-15T23:31:00.076Z,711.28
2023-05-15T23:33:28.491Z,707.88
2023-05-15T23:35:57.017Z,700.40
2023-05-15T23:38:25.428Z,706.40
2023-05-15T23:40:55.591Z,710.60
2023-05-15T23:43:24.128Z,720.58
2023-05-15T23:45:53.038Z,737.38
2023-05-15T23:48:21.531Z,685.10
2023-05-15T23:50:51.479Z,725.15
2023-05-15T23:53:20.209Z,720.95
2023-05-15T23:55:48.758Z,717.10
2023-05-15T23:58:18.955Z,720.60
